createdAt,value
2022-12-04T00:02:27.128Z,54.6
2022-12-04T00:07:27.075Z,53.3
2022-12-04T00:12:27.080Z,56.1
2022-12-04T00:17:27.025Z,57.0
2022-12-04T00:22:27.037Z,54.3
2022-12-04T00:27:27.045Z,54.0
2022-12-04T00:32:27.022Z,52.0
2022-12-04T00:37:27.029Z,53.7
2022-12-04T00:42:27.036Z,63.5
2022-12-04T00:47:27.036Z,52.5
2022-12-04T00:52:27.039Z,57.9
2022-12-04T00:57:27.048Z,56.9
2022-12-04T01:02:27.039Z,56.7
2022-12-04T01:07:27.073Z,53.1
2022-12-04T01:12:27.057Z,61.7
2022-12-04T01:17:27.032Z,60.9
2022-12-04T01:22:27.044Z,53.9
2022-12-04T01:27:27.043Z,56.5
2022-12-04T01:32:27.056Z,56.7
2022-12-04T01:37:27.053Z,55.2
2022-12-04T01:42:27.045Z,61.9
2022-12-04T01:47:27.050Z,59.0
2022-12-04T01:52:27.047Z,58.3
2022-12-04T01:57:27.167Z,56.5
2022-12-04T02:02:27.111Z,55.5
2022-12-04T02:07:27.115Z,60.9
2022-12-04T02:12:27.054Z,61.8
2022-12-04T02:17:27.144Z,63.8
2022-12-04T02:22:27.067Z,56.0
2022-12-04T02:27:27.055Z,57.4
2022-12-04T02:32:27.089Z,59.5
2022-12-04T02:37:27.064Z,57.9
2022-12-04T02:42:27.060Z,54.4
2022-12-04T02:47:27.058Z,60.2
2022-12-04T02:52:27.057Z,56.0
2022-12-04T02:57:27.062Z,57.1
2022-12-04T03:02:27.123Z,53.9
2022-12-04T03:07:27.098Z,50.6
2022-12-04T03:12:27.214Z,62.1
2022-12-04T03:17:27.076Z,59.1
2022-12-04T03:22:27.071Z,56.5
2022-12-04T03:27:27.072Z,57.1
2022-12-04T03:32:27.071Z,61.9
2022-12-04T03:37:27.096Z,61.0
2022-12-04T03:42:27.078Z,53.9
2022-12-04T03:47:27.091Z,66.3
2022-12-04T03:52:27.078Z,53.6
2022-12-04T03:57:27.070Z,61.8
2022-12-04T04:02:27.163Z,59.7
2022-12-04T04:07:30.453Z,59.1
2022-12-04T04:12:27.242Z,57.2
2022-12-04T04:17:27.086Z,61.5
2022-12-04T04:22:27.080Z,57.9
2022-12-04T04:27:27.092Z,62.4
2022-12-04T04:32:27.086Z,60.9
2022-12-04T04:37:27.099Z,64.2
2022-12-04T04:42:27.098Z,61.6
2022-12-04T04:47:27.102Z,61.7
2022-12-04T04:52:27.102Z,64.5
2022-12-04T04:57:27.098Z,57.8
2022-12-04T05:02:27.200Z,65.7
2022-12-04T05:07:27.143Z,57.0
2022-12-04T05:12:27.094Z,57.5
2022-12-04T05:17:27.092Z,61.5
2022-12-04T05:22:27.107Z,62.2
2022-12-04T05:27:27.093Z,63.4
2022-12-04T05:32:27.102Z,65.3
2022-12-04T05:37:27.134Z,61.9
2022-12-04T05:42:27.114Z,57.5
2022-12-04T05:47:27.109Z,57.3
2022-12-04T05:52:27.113Z,54.9
2022-12-04T05:57:30.046Z,56.2
2022-12-04T06:02:27.226Z,53.7
2022-12-04T06:07:27.201Z,57.9
2022-12-04T06:12:27.107Z,56.3
2022-12-04T06:17:27.109Z,56.2
2022-12-04T06:22:27.112Z,54.0
2022-12-04T06:27:29.198Z,53.2
2022-12-04T06:32:27.113Z,56.6
2022-12-04T06:37:27.119Z,54.4
2022-12-04T06:42:27.114Z,49.0
2022-12-04T06:47:27.117Z,51.6
2022-12-04T06:52:27.122Z,49.3
2022-12-04T06:57:27.125Z,50.9
2022-12-04T07:02:27.176Z,50.0
2022-12-04T07:07:27.205Z,45.3
2022-12-04T07:12:27.124Z,46.1
2022-12-04T07:17:27.134Z,42.6
2022-12-04T07:22:27.128Z,46.8
2022-12-04T07:27:27.130Z,45.2
2022-12-04T07:32:27.147Z,45.8
2022-12-04T07:37:27.131Z,41.3
2022-12-04T07:42:27.128Z,43.7
2022-12-04T07:47:27.145Z,48.6
2022-12-04T07:52:27.140Z,51.5
2022-12-04T07:57:27.139Z,47.6
2022-12-04T08:02:27.131Z,47.2
2022-12-04T08:07:27.302Z,42.1
2022-12-04T08:12:27.134Z,42.4
2022-12-04T08:17:27.246Z,40.2
2022-12-04T08:22:27.180Z,40.0
2022-12-04T08:27:27.060Z,39.0
2022-12-04T08:32:27.148Z,39.5
2022-12-04T08:37:27.147Z,42.8
2022-12-04T08:42:27.153Z,37.5
2022-12-04T08:47:27.149Z,34.9
2022-12-04T08:52:27.268Z,35.1
2022-12-04T08:57:27.166Z,32.9
2022-12-04T09:02:27.153Z,27.8
2022-12-04T09:07:27.278Z,28.8
2022-12-04T09:12:27.474Z,29.2
2022-12-04T09:17:27.175Z,29.9
2022-12-04T09:22:40.389Z,32.8
2022-12-04T09:27:27.161Z,29.1
2022-12-04T09:32:27.065Z,30.3
2022-12-04T09:37:27.164Z,30.8
2022-12-04T09:42:27.158Z,32.8
2022-12-04T09:47:27.159Z,31.4
2022-12-04T09:52:27.163Z,32.5
2022-12-04T09:57:27.165Z,28.6
2022-12-04T10:02:27.334Z,27.3
2022-12-04T10:07:27.321Z,27.5
2022-12-04T10:12:27.175Z,24.0
2022-12-04T10:17:32.496Z,28.7
2022-12-04T10:22:27.183Z,28.7
2022-12-04T10:27:27.121Z,27.1
2022-12-04T10:37:27.173Z,28.1
2022-12-04T10:42:27.106Z,27.5
2022-12-04T10:47:27.208Z,25.0
2022-12-04T10:52:27.091Z,28.8
2022-12-04T10:57:27.179Z,24.9
2022-12-04T11:02:27.537Z,28.2
2022-12-04T11:07:27.336Z,27.5
2022-12-04T11:12:27.232Z,26.1
2022-12-04T11:17:27.207Z,28.3
2022-12-04T11:22:27.305Z,24.6
2022-12-04T11:27:27.294Z,26.9
2022-12-04T11:32:27.191Z,27.5
2022-12-04T11:37:27.323Z,29.2
2022-12-04T11:42:27.193Z,23.1
2022-12-04T11:47:27.110Z,25.9
2022-12-04T11:52:27.113Z,26.0
2022-12-04T11:57:27.192Z,26.3
2022-12-04T12:02:27.366Z,26.3
2022-12-04T12:07:27.364Z,27.8
2022-12-04T12:12:27.105Z,25.3
2022-12-04T12:17:27.202Z,24.9
2022-12-04T12:22:27.111Z,25.0
2022-12-04T12:27:27.188Z,23.4
2022-12-04T12:32:27.105Z,23.3
2022-12-04T12:37:27.218Z,25.6
2022-12-04T12:42:27.115Z,23.8
2022-12-04T12:47:27.120Z,25.8
2022-12-04T12:52:27.131Z,25.6
2022-12-04T12:57:27.117Z,25.4
2022-12-04T13:02:27.169Z,24.3
2022-12-04T13:07:27.470Z,23.3
2022-12-04T13:12:27.137Z,24.5
2022-12-04T13:17:27.122Z,23.0
2022-12-04T13:22:27.121Z,25.1
2022-12-04T13:27:27.124Z,22.9
2022-12-04T13:32:27.718Z,19.7
2022-12-04T13:37:27.123Z,21.5
2022-12-04T13:42:27.130Z,24.7
2022-12-04T13:47:27.128Z,24.9
2022-12-04T13:52:27.132Z,22.1
2022-12-04T13:57:27.151Z,22.6
2022-12-04T14:02:27.212Z,22.8
2022-12-04T14:07:27.356Z,20.6
2022-12-04T14:12:27.138Z,22.3
2022-12-04T14:17:27.137Z,22.0
2022-12-04T14:22:27.135Z,22.2
2022-12-04T14:27:27.141Z,22.9
2022-12-04T14:32:27.238Z,25.0
2022-12-04T14:37:27.145Z,25.3
2022-12-04T14:42:27.253Z,26.3
2022-12-04T14:47:27.243Z,24.3
2022-12-04T14:52:27.150Z,22.8
2022-12-04T14:57:27.147Z,24.5
2022-12-04T15:02:27.148Z,20.8
2022-12-04T15:07:27.373Z,26.2
2022-12-04T15:12:27.153Z,26.7
2022-12-04T15:17:27.167Z,22.5
2022-12-04T15:22:27.162Z,23.4
2022-12-04T15:27:31.978Z,22.8
2022-12-04T15:32:27.154Z,22.3
2022-12-04T15:37:27.167Z,25.0
2022-12-04T15:42:27.176Z,24.7
2022-12-04T15:47:27.151Z,24.6
2022-12-04T15:52:27.169Z,22.7
2022-12-04T15:57:27.155Z,26.6
2022-12-04T16:02:27.176Z,25.3
2022-12-04T16:07:27.261Z,25.0
2022-12-04T16:12:27.255Z,25.8
2022-12-04T16:17:27.168Z,23.9
2022-12-04T16:22:27.168Z,28.0
2022-12-04T16:27:27.169Z,30.4
2022-12-04T16:32:27.166Z,27.2
2022-12-04T16:37:27.183Z,28.1
2022-12-04T16:42:27.170Z,29.5
2022-12-04T16:47:27.180Z,32.0
2022-12-04T16:52:27.176Z,32.3
2022-12-04T16:57:27.171Z,35.9
2022-12-04T17:02:27.181Z,37.8
2022-12-04T17:07:27.181Z,33.5
2022-12-04T17:12:27.184Z,30.9
2022-12-04T17:17:27.189Z,31.2
2022-12-04T17:22:27.266Z,37.1
2022-12-04T17:27:27.186Z,34.2
2022-12-04T17:32:27.188Z,33.6
2022-12-04T17:37:27.193Z,36.0
2022-12-04T17:42:27.193Z,35.4
2022-12-04T17:47:27.188Z,33.4
2022-12-04T17:52:27.189Z,30.8
2022-12-04T17:57:27.192Z,26.0
2022-12-04T18:02:27.262Z,33.7
2022-12-04T18:07:27.194Z,29.3
2022-12-04T18:12:27.200Z,30.3
2022-12-04T18:17:27.287Z,29.1
2022-12-04T18:22:27.196Z,33.0
2022-12-04T18:27:27.199Z,30.4
2022-12-04T18:32:27.198Z,30.3
2022-12-04T18:37:27.195Z,35.9
2022-12-04T18:42:27.276Z,32.1
2022-12-04T18:47:27.299Z,32.0
2022-12-04T18:52:27.214Z,31.9
2022-12-04T18:57:27.204Z,31.0
2022-12-04T19:02:27.278Z,26.4
2022-12-04T19:07:27.208Z,29.6
2022-12-04T19:12:27.205Z,29.0
2022-12-04T19:17:27.209Z,25.2
2022-12-04T19:22:27.226Z,28.7
2022-12-04T19:27:27.211Z,30.1
2022-12-04T19:32:27.276Z,27.6
2022-12-04T19:37:27.212Z,28.9
2022-12-04T19:42:27.215Z,27.7
2022-12-04T19:47:27.248Z,27.9
2022-12-04T19:52:27.224Z,23.8
2022-12-04T19:57:27.221Z,31.2
2022-12-04T20:02:27.424Z,32.2
2022-12-04T20:07:27.224Z,33.9
2022-12-04T20:12:27.220Z,31.9
2022-12-04T20:17:27.223Z,32.8
2022-12-04T20:22:27.227Z,32.0
2022-12-04T20:27:27.287Z,35.4
2022-12-04T20:32:27.258Z,35.5
2022-12-04T20:37:27.280Z,37.0
2022-12-04T20:42:33.093Z,33.2
2022-12-04T20:47:27.237Z,32.4
2022-12-04T20:52:27.326Z,35.1
2022-12-04T20:57:27.232Z,32.8
2022-12-04T21:02:27.265Z,35.4
2022-12-04T21:07:27.261Z,37.3
2022-12-04T21:12:27.241Z,36.4
2022-12-04T21:17:27.242Z,38.1
2022-12-04T21:22:27.337Z,37.8
2022-12-04T21:27:27.242Z,43.3
2022-12-04T21:32:27.244Z,38.7
2022-12-04T21:37:27.244Z,36.3
2022-12-04T21:42:27.245Z,42.5
2022-12-04T21:47:27.248Z,38.9
2022-12-04T21:52:27.253Z,38.3
2022-12-04T21:57:27.267Z,43.0
2022-12-04T22:02:27.373Z,43.7
2022-12-04T22:12:49.112Z,40.1
2022-12-04T22:17:27.268Z,44.6
2022-12-04T22:22:27.261Z,38.9
2022-12-04T22:27:27.261Z,40.6
2022-12-04T22:32:27.561Z,38.6
2022-12-04T22:37:27.333Z,40.9
2022-12-04T22:42:27.262Z,42.4
2022-12-04T22:47:27.262Z,44.6
2022-12-04T22:52:27.269Z,41.0
2022-12-04T22:57:27.406Z,42.6
2022-12-04T23:02:27.267Z,42.3
2022-12-04T23:07:27.270Z,40.6
2022-12-04T23:12:27.274Z,45.1
2022-12-04T23:17:27.272Z,41.6
2022-12-04T23:22:27.281Z,40.4
2022-12-04T23:27:27.276Z,44.6
2022-12-04T23:32:27.273Z,37.9
2022-12-04T23:37:27.291Z,40.6
2022-12-04T23:42:27.286Z,45.3
2022-12-04T23:47:27.281Z,42.7
2022-12-04T23:52:27.276Z,46.8
2022-12-04T23:57:27.284Z,39.9
